KESC/ESC METAR and TAF weather

Enter ICAO airport designator
Station Type Date Time Source
KESC METAR 2019/08/22 04:56 UTC NOAA

KESC 220456Z AUTO 28003KT 10SM CLR 11/09 A3002 RMK AO2 SLP171 T01060094 402500100 TSNO


Station Type Date Time Source
KESC Decoded METAR 2019/08/22 04:56 UTC NOAA

Station name not available
Aug 22, 2019 - 12:56 AM EDT / 2019.08.22 0456 UTC
Wind: from the W (280 degrees) at 3 MPH (3 KT):0
Visibility: 10 mile(s):0
Sky conditions: clear
Temperature: 51.1 F (10.6 C)
Dew Point: 48.9 F (9.4 C)
Relative Humidity: 92%
Pressure (altimeter): 30.02 in. Hg (1016 hPa)
ob: KESC 220456Z AUTO 28003KT 10SM CLR 11/09 A3002 RMK AO2 SLP171 T01060094 402500100 TSNO
cycle: 5

Station Type Date Time Source
KESC TAF UTC NOAA

Error!

Example: see airport list